Higman Mariner — WDI3837 — position and weather

sailwx.info

Track history (hours):
 
Tides and Currents Weather Stations Pressure Air Temp Water Temp Dewpoint Dewpoint Depression Visibility Wind Speed Wind Dir Waves Ship Positions

Higman Mariner

Owner: Higman Barge Lines, Inc., Orange, TX. More information available from US FCC via Universal Licensing System and Coast Guard Vessel Documentation Center.

Last reported at 2017-Nov-20 00:30 UTC. Time now 2017-Nov-21 15:40 UTC.
Position N 29°43' W 095°01'.

Length 24 m; draft 2.5 m.

Type: Tow > 200 m length. MMSI: 367692430.

Date/timePositionNaut miles runAvg speedWind from/ knotsBaromVisibWave heightAir tempDewpointWater temp
2017-Nov-20 00:30N 29°43' W 095°01'3 5.4
2017-Nov-20 00:00N 29°45' W 095°04'2 3.1
2017-Nov-19 23:22N 29°46' W 095°05'0 0.0
2017-Nov-19 22:59N 29°46' W 095°05'0 0.0
2017-Nov-19 22:30N 29°46' W 095°05'0 0.1
2017-Nov-19 22:00N 29°46' W 095°05'0 0.0
2017-Nov-19 09:56N 29°46' W 095°05'1 1.5
2017-Nov-19 09:29N 29°46' W 095°05'4 6.7
2017-Nov-19 08:57N 29°44' W 095°09'2 0.1
2017-Nov-17 16:56N 29°45' W 095°11'2 4.1
2017-Nov-17 16:28N 29°44' W 095°09'2 4.6
2017-Nov-17 16:00N 29°44' W 095°07'1 1.3
2017-Nov-17 15:02N 29°46' W 095°07'0 0.5
2017-Nov-17 15:00N 29°46' W 095°07'0 0.0
2017-Nov-17 05:23N 29°46' W 095°07'0 0.1
2017-Nov-17 03:38N 29°46' W 095°07'1 3.7
2017-Nov-17 03:29N 29°46' W 095°06'1 1.2
2017-Nov-17 03:00N 29°45' W 095°06'0 0.9
2017-Nov-17 02:29N 29°45' W 095°07'1 0.2
2017-Nov-16 19:03N 29°45' W 095°06'0 6.4
2017-Nov-16 18:59N 29°46' W 095°05'1 0.8
2017-Nov-16 17:29N 29°46' W 095°07'1 1.7
2017-Nov-16 16:49N 29°45' W 095°06'1 1.8
2017-Nov-16 16:30N 29°45' W 095°06'2 3.8
2017-Nov-16 15:58N 29°44' W 095°08'0 0.0
2017-Nov-16 13:44N 29°44' W 095°08'0 0.6
2017-Nov-16 13:30N 29°44' W 095°08'0 0.0
2017-Nov-16 12:59N 29°44' W 095°08'0 0.0
2017-Nov-16 12:30N 29°44' W 095°08'0 0.0
2017-Nov-16 12:00N 29°44' W 095°08'0 0.0
2017-Nov-16 05:45N 29°44' W 095°08'0 0.0
2017-Nov-15 15:30N 29°44' W 095°08'1 1.8
2017-Nov-15 14:53N 29°44' W 095°07'1 0.9
2017-Nov-15 13:27N 29°46' W 095°06'1 2.2
2017-Nov-15 13:00N 29°45' W 095°06'0 0.3
2017-Nov-15 12:30N 29°45' W 095°07'0 0.0
2017-Nov-15 12:00N 29°45' W 095°07'2 3.2
2017-Nov-15 11:30N 29°44' W 095°08'2 3.6
2017-Nov-15 11:00N 29°45' W 095°06'1 2.2
2017-Nov-15 10:29N 29°46' W 095°07'0 0.0
2017-Nov-15 09:59N 29°46' W 095°07'0 0.1
2017-Nov-15 09:29N 29°46' W 095°07'0 0.1
2017-Nov-15 08:22N 29°46' W 095°07'0 0.0
2017-Nov-15 07:57N 29°46' W 095°07'0 0.0
2017-Nov-15 07:29N 29°46' W 095°07'0 0.0
2017-Nov-15 06:53N 29°46' W 095°07'0 0.0
2017-Nov-15 04:34N 29°46' W 095°07'0 0.0
2017-Nov-15 04:23N 29°46' W 095°07'0 0.0
2017-Nov-15 03:54N 29°46' W 095°07'1 0.1
2017-Nov-14 18:07N 29°45' W 095°06'0 2.8
2017-Nov-14 17:59N 29°45' W 095°07'0 0.0
2017-Nov-14 17:25N 29°45' W 095°07'0 0.0
2017-Nov-14 16:55N 29°45' W 095°07'0 0.0
2017-Nov-14 16:24N 29°45' W 095°07'0 0.0
2017-Nov-14 16:00N 29°45' W 095°07'0 0.0
2017-Nov-14 15:30N 29°45' W 095°07'0 0.0
2017-Nov-14 15:00N 29°45' W 095°07'0 0.0
2017-Nov-14 14:19N 29°45' W 095°07'1 0.1
2017-Nov-14 02:05N 29°46' W 095°07'0 0.0
2017-Nov-14 01:41N 29°46' W 095°07'0 0.0
2017-Nov-14 01:25N 29°46' W 095°07'1 0.1
2017-Nov-13 02:00N 29°45' W 095°07'0 0.0
2017-Nov-13 01:30N 29°45' W 095°07'0 0.0
2017-Nov-13 01:00N 29°45' W 095°07'0 0.0
2017-Nov-13 00:30N 29°45' W 095°07'0 0.0
2017-Nov-13 00:00N 29°45' W 095°07'0 0.0
2017-Nov-12 23:30N 29°45' W 095°07'0 0.0
2017-Nov-12 23:00N 29°45' W 095°07'1 0.1
2017-Nov-12 13:45N 29°46' W 095°07'0 0.0
2017-Nov-12 13:28N 29°46' W 095°07'0 0.0
2017-Nov-12 12:53N 29°46' W 095°07'0 0.0
2017-Nov-12 11:54N 29°46' W 095°07'0 0.0
2017-Nov-12 11:29N 29°46' W 095°07'0 0.0
2017-Nov-12 11:00N 29°46' W 095°07'0 0.0
2017-Nov-12 09:15N 29°46' W 095°07'0 0.0
2017-Nov-12 07:31N 29°46' W 095°07'0 0.0
2017-Nov-12 06:47N 29°46' W 095°07'0 0.0
2017-Nov-12 06:16N 29°46' W 095°07'0 0.0
2017-Nov-12 05:41N 29°46' W 095°07'0 0.0
2017-Nov-12 05:30N 29°46' W 095°07'0 0.0
2017-Nov-12 04:54N 29°46' W 095°07'0 0.0
2017-Nov-12 03:45N 29°46' W 095°07'0 0.0
2017-Nov-12 03:28N 29°46' W 095°07'0 0.0
2017-Nov-12 03:00N 29°46' W 095°07'0 0.0
2017-Nov-11 15:21N 29°46' W 095°07'0 0.0
2017-Nov-11 14:53N 29°46' W 095°07'0 0.0
2017-Nov-11 13:10N 29°46' W 095°07'0 0.0
2017-Nov-11 13:00N 29°46' W 095°07'0 0.0
2017-Nov-11 12:13N 29°46' W 095°07'0 0.0
2017-Nov-11 11:36N 29°46' W 095°07'0 0.0
2017-Nov-11 11:29N 29°46' W 095°07'0 0.0
2017-Nov-11 10:59N 29°46' W 095°07'0 0.0
2017-Nov-11 10:27N 29°46' W 095°07'0 0.0
2017-Nov-11 09:58N 29°46' W 095°07'0 0.0
2017-Nov-11 09:29N 29°46' W 095°07'0 0.2
2017-Nov-11 09:00N 29°46' W 095°07'1 1.5
2017-Nov-11 08:30N 29°45' W 095°06'2 4.4
2017-Nov-11 07:59N 29°44' W 095°08'2 3.5
2017-Nov-11 07:30N 29°44' W 095°10'0 0.1
2017-Nov-11 07:00N 29°44' W 095°10'0 0.0
2017-Nov-11 06:30N 29°44' W 095°10'0 0.0
2017-Nov-11 06:00N 29°44' W 095°10'0 0.0
2017-Nov-11 05:31N 29°44' W 095°10'0 0.0
2017-Nov-11 05:00N 29°44' W 095°10'0 0.0
2017-Nov-11 04:30N 29°44' W 095°10'0 0.0
2017-Nov-11 04:00N 29°44' W 095°10'0 0.0
2017-Nov-11 03:31N 29°44' W 095°10'0 0.0
2017-Nov-11 03:00N 29°44' W 095°10'0 0.0
2017-Nov-11 02:31N 29°44' W 095°10'0 0.0
2017-Nov-11 02:00N 29°44' W 095°10'0 0.0
2017-Nov-11 01:31N 29°44' W 095°10'0 0.0
2017-Nov-11 01:00N 29°44' W 095°10'0 0.0
2017-Nov-11 00:30N 29°44' W 095°10'0 0.0
2017-Nov-11 00:00N 29°44' W 095°10'0 0.0
2017-Nov-10 23:30N 29°44' W 095°10'0 0.0
2017-Nov-10 23:00N 29°44' W 095°10'0 0.0
2017-Nov-10 22:30N 29°44' W 095°10'0 0.0
2017-Nov-10 22:00N 29°44' W 095°10'0 0.1
2017-Nov-10 21:30N 29°44' W 095°10'0 0.0
2017-Nov-10 20:58N 29°44' W 095°10'0 0.0
2017-Nov-10 20:28N 29°44' W 095°10'0 0.0
2017-Nov-10 20:00N 29°44' W 095°10'0 0.0
2017-Nov-10 19:29N 29°44' W 095°10'0 0.0
2017-Nov-10 19:00N 29°44' W 095°10'0 0.0
2017-Nov-10 18:30N 29°44' W 095°10'0 0.0
2017-Nov-10 17:59N 29°44' W 095°10'0 0.0
2017-Nov-10 17:29N 29°44' W 095°10'0 0.0
2017-Nov-10 16:59N 29°44' W 095°10'0 0.0
2017-Nov-10 16:24N 29°44' W 095°10'0 0.0
2017-Nov-10 15:59N 29°44' W 095°10'0 0.0
2017-Nov-10 15:29N 29°44' W 095°10'0 0.0
2017-Nov-10 15:00N 29°44' W 095°10'0 0.0
2017-Nov-10 14:14N 29°44' W 095°10'0 0.0
2017-Nov-10 13:59N 29°44' W 095°10'0 0.0
2017-Nov-10 13:30N 29°44' W 095°10'0 0.0
2017-Nov-10 12:59N 29°44' W 095°10'0 0.0
2017-Nov-10 12:30N 29°44' W 095°10'0 0.0
2017-Nov-10 12:00N 29°44' W 095°10'0 0.0
2017-Nov-10 11:30N 29°44' W 095°10'0 0.0
2017-Nov-10 11:00N 29°44' W 095°10'0 0.0
2017-Nov-10 10:31N 29°44' W 095°10'0 0.0
2017-Nov-10 10:00N 29°44' W 095°10'0 0.0
2017-Nov-10 09:30N 29°44' W 095°10'0 0.0
2017-Nov-10 09:00N 29°44' W 095°10'0 0.0
2017-Nov-10 08:30N 29°44' W 095°10'0 0.0
2017-Nov-10 08:01N 29°44' W 095°10'0 0.0
2017-Nov-10 07:30N 29°44' W 095°10'0 0.0
2017-Nov-10 07:00N 29°44' W 095°10'0 0.0
2017-Nov-10 06:30N 29°44' W 095°10'0 0.0
2017-Nov-10 06:00N 29°44' W 095°10'0 0.1
2017-Nov-10 05:31N 29°44' W 095°10'0 0.9
2017-Nov-10 05:00N 29°44' W 095°09'3 5.2
2017-Nov-10 04:30N 29°45' W 095°06'2 4.5
2017-Nov-10 03:58N 29°47' W 095°05'0 0.2
2017-Nov-10 03:05N 29°46' W 095°05'0 0.4
2017-Nov-10 02:58N 29°46' W 095°05'0 0.0
2017-Nov-10 02:28N 29°46' W 095°05'0 0.0
2017-Nov-10 02:00N 29°46' W 095°05'0 0.0
2017-Nov-10 01:28N 29°46' W 095°05'  
Track history (hours):
 
Tides and Currents Weather Stations Pressure Air Temp Water Temp Dewpoint Dewpoint Depression Visibility Wind Speed Wind Dir Waves Ship Positions

Higman Mariner

Owner: Higman Barge Lines, Inc., Orange, TX. More information available from US FCC via Universal Licensing System and Coast Guard Vessel Documentation Center.

Last reported at 2017-Nov-20 00:30 UTC. Time now 2017-Nov-21 15:40 UTC.
Position N 29°43' W 095°01'.

Length 24 m; draft 2.5 m.

Type: Tow > 200 m length. MMSI: 367692430.

Date/timePositionNaut miles runAvg speedWind from/ knotsBaromVisibWave heightAir tempDewpointWater temp
2017-Nov-20 00:30N 29°43' W 095°01'3 5.4
2017-Nov-20 00:00N 29°45' W 095°04'2 3.1
2017-Nov-19 23:22N 29°46' W 095°05'0 0.0
2017-Nov-19 22:59N 29°46' W 095°05'0 0.0
2017-Nov-19 22:30N 29°46' W 095°05'0 0.1
2017-Nov-19 22:00N 29°46' W 095°05'0 0.0
2017-Nov-19 09:56N 29°46' W 095°05'1 1.5
2017-Nov-19 09:29N 29°46' W 095°05'4 6.7
2017-Nov-19 08:57N 29°44' W 095°09'2 0.1
2017-Nov-17 16:56N 29°45' W 095°11'2 4.1
2017-Nov-17 16:28N 29°44' W 095°09'2 4.6
2017-Nov-17 16:00N 29°44' W 095°07'1 1.3
2017-Nov-17 15:02N 29°46' W 095°07'0 0.5
2017-Nov-17 15:00N 29°46' W 095°07'0 0.0
2017-Nov-17 05:23N 29°46' W 095°07'0 0.1
2017-Nov-17 03:38N 29°46' W 095°07'1 3.7
2017-Nov-17 03:29N 29°46' W 095°06'1 1.2
2017-Nov-17 03:00N 29°45' W 095°06'0 0.9
2017-Nov-17 02:29N 29°45' W 095°07'1 0.2
2017-Nov-16 19:03N 29°45' W 095°06'0 6.4
2017-Nov-16 18:59N 29°46' W 095°05'1 0.8
2017-Nov-16 17:29N 29°46' W 095°07'1 1.7
2017-Nov-16 16:49N 29°45' W 095°06'1 1.8
2017-Nov-16 16:30N 29°45' W 095°06'2 3.8
2017-Nov-16 15:58N 29°44' W 095°08'0 0.0
2017-Nov-16 13:44N 29°44' W 095°08'0 0.6
2017-Nov-16 13:30N 29°44' W 095°08'0 0.0
2017-Nov-16 12:59N 29°44' W 095°08'0 0.0
2017-Nov-16 12:30N 29°44' W 095°08'0 0.0
2017-Nov-16 12:00N 29°44' W 095°08'0 0.0
2017-Nov-16 05:45N 29°44' W 095°08'0 0.0
2017-Nov-15 15:30N 29°44' W 095°08'1 1.8
2017-Nov-15 14:53N 29°44' W 095°07'1 0.9
2017-Nov-15 13:27N 29°46' W 095°06'1 2.2
2017-Nov-15 13:00N 29°45' W 095°06'0 0.3
2017-Nov-15 12:30N 29°45' W 095°07'0 0.0
2017-Nov-15 12:00N 29°45' W 095°07'2 3.2
2017-Nov-15 11:30N 29°44' W 095°08'2 3.6
2017-Nov-15 11:00N 29°45' W 095°06'1 2.2
2017-Nov-15 10:29N 29°46' W 095°07'0 0.0
2017-Nov-15 09:59N 29°46' W 095°07'0 0.1
2017-Nov-15 09:29N 29°46' W 095°07'0 0.1
2017-Nov-15 08:22N 29°46' W 095°07'0 0.0
2017-Nov-15 07:57N 29°46' W 095°07'0 0.0
2017-Nov-15 07:29N 29°46' W 095°07'0 0.0
2017-Nov-15 06:53N 29°46' W 095°07'0 0.0
2017-Nov-15 04:34N 29°46' W 095°07'0 0.0
2017-Nov-15 04:23N 29°46' W 095°07'0 0.0
2017-Nov-15 03:54N 29°46' W 095°07'1 0.1
2017-Nov-14 18:07N 29°45' W 095°06'0 2.8
2017-Nov-14 17:59N 29°45' W 095°07'0 0.0
2017-Nov-14 17:25N 29°45' W 095°07'0 0.0
2017-Nov-14 16:55N 29°45' W 095°07'0 0.0
2017-Nov-14 16:24N 29°45' W 095°07'0 0.0
2017-Nov-14 16:00N 29°45' W 095°07'0 0.0
2017-Nov-14 15:30N 29°45' W 095°07'0 0.0
2017-Nov-14 15:00N 29°45' W 095°07'0 0.0
2017-Nov-14 14:19N 29°45' W 095°07'1 0.1
2017-Nov-14 02:05N 29°46' W 095°07'0 0.0
2017-Nov-14 01:41N 29°46' W 095°07'0 0.0
2017-Nov-14 01:25N 29°46' W 095°07'1 0.1
2017-Nov-13 02:00N 29°45' W 095°07'0 0.0
2017-Nov-13 01:30N 29°45' W 095°07'0 0.0
2017-Nov-13 01:00N 29°45' W 095°07'0 0.0
2017-Nov-13 00:30N 29°45' W 095°07'0 0.0
2017-Nov-13 00:00N 29°45' W 095°07'0 0.0
2017-Nov-12 23:30N 29°45' W 095°07'0 0.0
2017-Nov-12 23:00N 29°45' W 095°07'1 0.1
2017-Nov-12 13:45N 29°46' W 095°07'0 0.0
2017-Nov-12 13:28N 29°46' W 095°07'0 0.0
2017-Nov-12 12:53N 29°46' W 095°07'0 0.0
2017-Nov-12 11:54N 29°46' W 095°07'0 0.0
2017-Nov-12 11:29N 29°46' W 095°07'0 0.0
2017-Nov-12 11:00N 29°46' W 095°07'0 0.0
2017-Nov-12 09:15N 29°46' W 095°07'0 0.0
2017-Nov-12 07:31N 29°46' W 095°07'0 0.0
2017-Nov-12 06:47N 29°46' W 095°07'0 0.0
2017-Nov-12 06:16N 29°46' W 095°07'0 0.0
2017-Nov-12 05:41N 29°46' W 095°07'0 0.0
2017-Nov-12 05:30N 29°46' W 095°07'0 0.0
2017-Nov-12 04:54N 29°46' W 095°07'0 0.0
2017-Nov-12 03:45N 29°46' W 095°07'0 0.0
2017-Nov-12 03:28N 29°46' W 095°07'0 0.0
2017-Nov-12 03:00N 29°46' W 095°07'0 0.0
2017-Nov-11 15:21N 29°46' W 095°07'0 0.0
2017-Nov-11 14:53N 29°46' W 095°07'0 0.0
2017-Nov-11 13:10N 29°46' W 095°07'0 0.0
2017-Nov-11 13:00N 29°46' W 095°07'0 0.0
2017-Nov-11 12:13N 29°46' W 095°07'0 0.0
2017-Nov-11 11:36N 29°46' W 095°07'0 0.0
2017-Nov-11 11:29N 29°46' W 095°07'0 0.0
2017-Nov-11 10:59N 29°46' W 095°07'0 0.0
2017-Nov-11 10:27N 29°46' W 095°07'0 0.0
2017-Nov-11 09:58N 29°46' W 095°07'0 0.0
2017-Nov-11 09:29N 29°46' W 095°07'0 0.2
2017-Nov-11 09:00N 29°46' W 095°07'1 1.5
2017-Nov-11 08:30N 29°45' W 095°06'2 4.4
2017-Nov-11 07:59N 29°44' W 095°08'2 3.5
2017-Nov-11 07:30N 29°44' W 095°10'0 0.1
2017-Nov-11 07:00N 29°44' W 095°10'0 0.0
2017-Nov-11 06:30N 29°44' W 095°10'0 0.0
2017-Nov-11 06:00N 29°44' W 095°10'0 0.0
2017-Nov-11 05:31N 29°44' W 095°10'0 0.0
2017-Nov-11 05:00N 29°44' W 095°10'0 0.0
2017-Nov-11 04:30N 29°44' W 095°10'0 0.0
2017-Nov-11 04:00N 29°44' W 095°10'0 0.0
2017-Nov-11 03:31N 29°44' W 095°10'0 0.0
2017-Nov-11 03:00N 29°44' W 095°10'0 0.0
2017-Nov-11 02:31N 29°44' W 095°10'0 0.0
2017-Nov-11 02:00N 29°44' W 095°10'0 0.0
2017-Nov-11 01:31N 29°44' W 095°10'0 0.0
2017-Nov-11 01:00N 29°44' W 095°10'0 0.0
2017-Nov-11 00:30N 29°44' W 095°10'0 0.0
2017-Nov-11 00:00N 29°44' W 095°10'0 0.0
2017-Nov-10 23:30N 29°44' W 095°10'0 0.0
2017-Nov-10 23:00N 29°44' W 095°10'0 0.0
2017-Nov-10 22:30N 29°44' W 095°10'0 0.0
2017-Nov-10 22:00N 29°44' W 095°10'0 0.1
2017-Nov-10 21:30N 29°44' W 095°10'0 0.0
2017-Nov-10 20:58N 29°44' W 095°10'0 0.0
2017-Nov-10 20:28N 29°44' W 095°10'0 0.0
2017-Nov-10 20:00N 29°44' W 095°10'0 0.0
2017-Nov-10 19:29N 29°44' W 095°10'0 0.0
2017-Nov-10 19:00N 29°44' W 095°10'0 0.0
2017-Nov-10 18:30N 29°44' W 095°10'0 0.0
2017-Nov-10 17:59N 29°44' W 095°10'0 0.0
2017-Nov-10 17:29N 29°44' W 095°10'0 0.0
2017-Nov-10 16:59N 29°44' W 095°10'0 0.0
2017-Nov-10 16:24N 29°44' W 095°10'0 0.0
2017-Nov-10 15:59N 29°44' W 095°10'0 0.0
2017-Nov-10 15:29N 29°44' W 095°10'0 0.0
2017-Nov-10 15:00N 29°44' W 095°10'0 0.0
2017-Nov-10 14:14N 29°44' W 095°10'0 0.0
2017-Nov-10 13:59N 29°44' W 095°10'0 0.0
2017-Nov-10 13:30N 29°44' W 095°10'0 0.0
2017-Nov-10 12:59N 29°44' W 095°10'0 0.0
2017-Nov-10 12:30N 29°44' W 095°10'0 0.0
2017-Nov-10 12:00N 29°44' W 095°10'0 0.0
2017-Nov-10 11:30N 29°44' W 095°10'0 0.0
2017-Nov-10 11:00N 29°44' W 095°10'0 0.0
2017-Nov-10 10:31N 29°44' W 095°10'0 0.0
2017-Nov-10 10:00N 29°44' W 095°10'0 0.0
2017-Nov-10 09:30N 29°44' W 095°10'0 0.0
2017-Nov-10 09:00N 29°44' W 095°10'0 0.0
2017-Nov-10 08:30N 29°44' W 095°10'0 0.0
2017-Nov-10 08:01N 29°44' W 095°10'0 0.0
2017-Nov-10 07:30N 29°44' W 095°10'0 0.0
2017-Nov-10 07:00N 29°44' W 095°10'0 0.0
2017-Nov-10 06:30N 29°44' W 095°10'0 0.0
2017-Nov-10 06:00N 29°44' W 095°10'0 0.1
2017-Nov-10 05:31N 29°44' W 095°10'0 0.9
2017-Nov-10 05:00N 29°44' W 095°09'3 5.2
2017-Nov-10 04:30N 29°45' W 095°06'2 4.5
2017-Nov-10 03:58N 29°47' W 095°05'0 0.2
2017-Nov-10 03:05N 29°46' W 095°05'0 0.4
2017-Nov-10 02:58N 29°46' W 095°05'0 0.0
2017-Nov-10 02:28N 29°46' W 095°05'0 0.0
2017-Nov-10 02:00N 29°46' W 095°05'0 0.0
2017-Nov-10 01:28N 29°46' W 095°05'  

Dump ship's entire track history